sensor_id;sensor_type;location;lat;lon;timestamp;P1;durP1;ratioP1;P2;durP2;ratioP2
70985;SDS011;58645;43.068;25.610;2022-09-29T00:02:21;7.28;;;4.63;;
70985;SDS011;58645;43.068;25.610;2022-09-29T00:04:47;7.97;;;4.85;;
70985;SDS011;58645;43.068;25.610;2022-09-29T00:07:12;9.40;;;4.57;;
70985;SDS011;58645;43.068;25.610;2022-09-29T00:09:38;11.77;;;5.65;;
70985;SDS011;58645;43.068;25.610;2022-09-29T00:12:04;8.48;;;4.72;;
70985;SDS011;58645;43.068;25.610;2022-09-29T00:14:29;7.03;;;4.03;;
70985;SDS011;58645;43.068;25.610;2022-09-29T00:16:55;6.30;;;3.17;;
70985;SDS011;58645;43.068;25.610;2022-09-29T00:19:21;4.45;;;2.58;;
70985;SDS011;58645;43.068;25.610;2022-09-29T00:21:47;9.15;;;2.83;;
70985;SDS011;58645;43.068;25.610;2022-09-29T00:24:12;3.90;;;2.28;;
70985;SDS011;58645;43.068;25.610;2022-09-29T00:26:38;4.93;;;2.67;;
70985;SDS011;58645;43.068;25.610;2022-09-29T00:29:04;4.90;;;2.15;;
70985;SDS011;58645;43.068;25.610;2022-09-29T00:31:31;7.57;;;2.08;;
70985;SDS011;58645;43.068;25.610;2022-09-29T00:33:58;4.45;;;2.40;;
70985;SDS011;58645;43.068;25.610;2022-09-29T00:36:24;3.58;;;2.25;;
70985;SDS011;58645;43.068;25.610;2022-09-29T00:38:54;3.33;;;2.40;;
70985;SDS011;58645;43.068;25.610;2022-09-29T00:41:28;5.35;;;3.08;;
70985;SDS011;58645;43.068;25.610;2022-09-29T00:44:04;7.72;;;3.28;;
70985;SDS011;58645;43.068;25.610;2022-09-29T00:49:02;6.85;;;3.47;;
70985;SDS011;58645;43.068;25.610;2022-09-29T00:51:38;6.28;;;3.83;;
70985;SDS011;58645;43.068;25.610;2022-09-29T00:54:06;6.03;;;4.00;;
70985;SDS011;58645;43.068;25.610;2022-09-29T00:59:04;5.97;;;3.60;;
70985;SDS011;58645;43.068;25.610;2022-09-29T01:01:33;8.07;;;4.10;;
70985;SDS011;58645;43.068;25.610;2022-09-29T01:04:02;7.68;;;3.63;;
70985;SDS011;58645;43.068;25.610;2022-09-29T01:06:53;8.13;;;4.13;;
70985;SDS011;58645;43.068;25.610;2022-09-29T01:09:26;11.15;;;4.18;;
70985;SDS011;58645;43.068;25.610;2022-09-29T01:11:56;5.93;;;3.72;;
70985;SDS011;58645;43.068;25.610;2022-09-29T01:14:23;10.20;;;4.03;;
70985;SDS011;58645;43.068;25.610;2022-09-29T01:16:50;6.93;;;3.75;;
70985;SDS011;58645;43.068;25.610;2022-09-29T01:22:17;9.90;;;3.60;;
70985;SDS011;58645;43.068;25.610;2022-09-29T01:43:49;7.18;;;3.25;;
70985;SDS011;58645;43.068;25.610;2022-09-29T01:46:34;9.52;;;3.58;;
70985;SDS011;58645;43.068;25.610;2022-09-29T01:49:16;5.30;;;3.33;;
70985;SDS011;58645;43.068;25.610;2022-09-29T01:51:48;6.50;;;3.22;;
70985;SDS011;58645;43.068;25.610;2022-09-29T01:55:05;8.77;;;3.72;;
70985;SDS011;58645;43.068;25.610;2022-09-29T01:57:08;7.05;;;3.70;;
70985;SDS011;58645;43.068;25.610;2022-09-29T02:00:16;7.15;;;3.55;;
70985;SDS011;58645;43.068;25.610;2022-09-29T02:05:35;7.07;;;4.47;;
70985;SDS011;58645;43.068;25.610;2022-09-29T02:08:08;9.45;;;4.43;;
70985;SDS011;58645;43.068;25.610;2022-09-29T02:11:03;8.50;;;5.10;;
70985;SDS011;58645;43.068;25.610;2022-09-29T02:13:32;9.15;;;4.03;;
70985;SDS011;58645;43.068;25.610;2022-09-29T02:16:02;7.90;;;3.47;;
70985;SDS011;58645;43.068;25.610;2022-09-29T02:18:31;9.00;;;4.57;;
70985;SDS011;58645;43.068;25.610;2022-09-29T02:21:05;7.63;;;4.03;;
70985;SDS011;58645;43.068;25.610;2022-09-29T02:23:30;7.07;;;3.13;;
70985;SDS011;58645;43.068;25.610;2022-09-29T02:25:56;5.72;;;3.33;;
70985;SDS011;58645;43.068;25.610;2022-09-29T02:28:24;6.78;;;3.35;;
70985;SDS011;58645;43.068;25.610;2022-09-29T02:30:50;9.73;;;3.17;;
70985;SDS011;58645;43.068;25.610;2022-09-29T02:33:20;6.63;;;3.22;;
70985;SDS011;58645;43.068;25.610;2022-09-29T02:35:50;4.60;;;2.88;;
70985;SDS011;58645;43.068;25.610;2022-09-29T02:39:00;4.65;;;2.33;;
70985;SDS011;58645;43.068;25.610;2022-09-29T02:52:54;5.30;;;2.60;;
70985;SDS011;58645;43.068;25.610;2022-09-29T02:58:03;3.42;;;2.25;;
70985;SDS011;58645;43.068;25.610;2022-09-29T03:00:38;5.65;;;2.63;;
70985;SDS011;58645;43.068;25.610;2022-09-29T03:03:04;6.50;;;3.20;;
70985;SDS011;58645;43.068;25.610;2022-09-29T03:05:29;5.45;;;3.10;;
70985;SDS011;58645;43.068;25.610;2022-09-29T03:07:55;5.63;;;3.90;;
70985;SDS011;58645;43.068;25.610;2022-09-29T03:10:21;6.78;;;3.75;;
70985;SDS011;58645;43.068;25.610;2022-09-29T03:12:47;6.38;;;3.80;;
70985;SDS011;58645;43.068;25.610;2022-09-29T03:15:12;8.70;;;4.60;;
70985;SDS011;58645;43.068;25.610;2022-09-29T03:17:38;6.53;;;4.28;;
70985;SDS011;58645;43.068;25.610;2022-09-29T03:20:05;9.18;;;4.57;;
70985;SDS011;58645;43.068;25.610;2022-09-29T03:22:32;8.18;;;3.75;;
70985;SDS011;58645;43.068;25.610;2022-09-29T03:24:58;6.80;;;3.80;;
70985;SDS011;58645;43.068;25.610;2022-09-29T03:27:24;9.00;;;4.38;;
70985;SDS011;58645;43.068;25.610;2022-09-29T03:29:49;7.32;;;4.25;;
70985;SDS011;58645;43.068;25.610;2022-09-29T03:32:15;7.50;;;4.30;;
70985;SDS011;58645;43.068;25.610;2022-09-29T03:34:41;7.93;;;3.88;;
70985;SDS011;58645;43.068;25.610;2022-09-29T03:37:07;8.55;;;3.78;;
70985;SDS011;58645;43.068;25.610;2022-09-29T03:39:33;7.25;;;4.32;;
70985;SDS011;58645;43.068;25.610;2022-09-29T03:41:59;6.68;;;4.07;;
70985;SDS011;58645;43.068;25.610;2022-09-29T03:44:25;7.07;;;4.20;;
70985;SDS011;58645;43.068;25.610;2022-09-29T03:46:50;8.90;;;4.38;;
70985;SDS011;58645;43.068;25.610;2022-09-29T03:49:16;10.57;;;4.25;;
70985;SDS011;58645;43.068;25.610;2022-09-29T03:51:43;6.38;;;3.88;;
70985;SDS011;58645;43.068;25.610;2022-09-29T03:54:09;7.25;;;4.40;;
70985;SDS011;58645;43.068;25.610;2022-09-29T03:56:35;8.27;;;4.53;;
70985;SDS011;58645;43.068;25.610;2022-09-29T03:59:02;8.45;;;3.90;;
70985;SDS011;58645;43.068;25.610;2022-09-29T04:01:29;6.35;;;3.83;;
70985;SDS011;58645;43.068;25.610;2022-09-29T04:03:56;8.88;;;4.10;;
70985;SDS011;58645;43.068;25.610;2022-09-29T04:08:48;8.13;;;4.03;;
70985;SDS011;58645;43.068;25.610;2022-09-29T04:11:14;5.53;;;3.97;;
70985;SDS011;58645;43.068;25.610;2022-09-29T04:13:40;6.68;;;3.83;;
70985;SDS011;58645;43.068;25.610;2022-09-29T04:16:05;7.57;;;4.03;;
70985;SDS011;58645;43.068;25.610;2022-09-29T04:18:31;7.55;;;3.10;;
70985;SDS011;58645;43.068;25.610;2022-09-29T04:20:58;7.10;;;3.17;;
70985;SDS011;58645;43.068;25.610;2022-09-29T04:23:26;7.28;;;4.00;;
70985;SDS011;58645;43.068;25.610;2022-09-29T04:25:55;7.47;;;3.97;;
70985;SDS011;58645;43.068;25.610;2022-09-29T04:28:21;6.55;;;3.67;;
70985;SDS011;58645;43.068;25.610;2022-09-29T04:33:14;10.27;;;4.65;;
70985;SDS011;58645;43.068;25.610;2022-09-29T04:35:39;8.95;;;4.00;;
70985;SDS011;58645;43.068;25.610;2022-09-29T04:38:05;7.15;;;4.75;;
70985;SDS011;58645;43.068;25.610;2022-09-29T04:40:32;12.93;;;4.50;;
70985;SDS011;58645;43.068;25.610;2022-09-29T04:43:01;7.35;;;4.57;;
70985;SDS011;58645;43.068;25.610;2022-09-29T04:45:28;12.65;;;4.80;;
70985;SDS011;58645;43.068;25.610;2022-09-29T04:50:20;12.25;;;5.57;;
70985;SDS011;58645;43.068;25.610;2022-09-29T04:52:46;8.38;;;5.05;;
70985;SDS011;58645;43.068;25.610;2022-09-29T04:55:12;12.82;;;6.63;;
70985;SDS011;58645;43.068;25.610;2022-09-29T04:57:47;12.18;;;5.55;;
70985;SDS011;58645;43.068;25.610;2022-09-29T05:00:22;15.50;;;5.40;;
70985;SDS011;58645;43.068;25.610;2022-09-29T05:02:50;17.27;;;6.93;;
70985;SDS011;58645;43.068;25.610;2022-09-29T05:05:17;13.27;;;6.57;;
70985;SDS011;58645;43.068;25.610;2022-09-29T05:07:43;15.80;;;7.70;;
70985;SDS011;58645;43.068;25.610;2022-09-29T05:10:09;19.45;;;8.20;;
70985;SDS011;58645;43.068;25.610;2022-09-29T05:12:35;18.92;;;8.55;;
70985;SDS011;58645;43.068;25.610;2022-09-29T05:15:01;13.80;;;7.90;;
70985;SDS011;58645;43.068;25.610;2022-09-29T05:17:29;15.57;;;7.95;;
70985;SDS011;58645;43.068;25.610;2022-09-29T05:19:54;19.00;;;9.65;;
70985;SDS011;58645;43.068;25.610;2022-09-29T05:22:20;20.08;;;8.43;;
70985;SDS011;58645;43.068;25.610;2022-09-29T05:24:49;17.15;;;8.20;;
70985;SDS011;58645;43.068;25.610;2022-09-29T05:27:16;16.77;;;8.88;;
70985;SDS011;58645;43.068;25.610;2022-09-29T05:29:41;24.05;;;9.52;;
70985;SDS011;58645;43.068;25.610;2022-09-29T05:32:07;24.77;;;9.95;;
70985;SDS011;58645;43.068;25.610;2022-09-29T05:34:33;14.68;;;8.55;;
70985;SDS011;58645;43.068;25.610;2022-09-29T05:36:59;17.92;;;8.27;;
70985;SDS011;58645;43.068;25.610;2022-09-29T05:39:24;18.23;;;9.95;;
70985;SDS011;58645;43.068;25.610;2022-09-29T05:41:56;16.05;;;7.60;;
70985;SDS011;58645;43.068;25.610;2022-09-29T05:44:58;13.25;;;7.28;;
70985;SDS011;58645;43.068;25.610;2022-09-29T05:47:17;17.95;;;8.35;;
70985;SDS011;58645;43.068;25.610;2022-09-29T05:49:46;10.15;;;5.78;;
70985;SDS011;58645;43.068;25.610;2022-09-29T05:52:11;14.18;;;6.63;;
70985;SDS011;58645;43.068;25.610;2022-09-29T05:54:37;11.30;;;6.80;;
70985;SDS011;58645;43.068;25.610;2022-09-29T05:57:09;12.82;;;8.45;;
70985;SDS011;58645;43.068;25.610;2022-09-29T05:59:35;16.17;;;7.88;;
70985;SDS011;58645;43.068;25.610;2022-09-29T06:02:00;15.38;;;7.53;;
70985;SDS011;58645;43.068;25.610;2022-09-29T06:06:52;15.80;;;8.43;;
70985;SDS011;58645;43.068;25.610;2022-09-29T06:09:19;13.90;;;7.53;;
70985;SDS011;58645;43.068;25.610;2022-09-29T06:11:45;14.90;;;8.05;;
70985;SDS011;58645;43.068;25.610;2022-09-29T06:14:10;14.50;;;6.97;;
70985;SDS011;58645;43.068;25.610;2022-09-29T06:19:02;14.85;;;7.35;;
70985;SDS011;58645;43.068;25.610;2022-09-29T06:21:29;14.07;;;7.45;;
70985;SDS011;58645;43.068;25.610;2022-09-29T06:23:56;18.42;;;8.07;;
70985;SDS011;58645;43.068;25.610;2022-09-29T06:26:25;13.63;;;7.68;;
70985;SDS011;58645;43.068;25.610;2022-09-29T06:28:52;13.23;;;7.55;;
70985;SDS011;58645;43.068;25.610;2022-09-29T06:31:19;15.60;;;8.05;;
70985;SDS011;58645;43.068;25.610;2022-09-29T06:33:47;14.45;;;9.05;;
70985;SDS011;58645;43.068;25.610;2022-09-29T06:36:15;14.27;;;10.60;;
70985;SDS011;58645;43.068;25.610;2022-09-29T06:39:06;12.00;;;6.53;;
70985;SDS011;58645;43.068;25.610;2022-09-29T06:41:33;8.73;;;5.15;;
70985;SDS011;58645;43.068;25.610;2022-09-29T06:43:59;11.77;;;4.32;;
70985;SDS011;58645;43.068;25.610;2022-09-29T06:46:26;7.15;;;3.50;;
70985;SDS011;58645;43.068;25.610;2022-09-29T06:48:52;8.27;;;3.50;;
70985;SDS011;58645;43.068;25.610;2022-09-29T06:51:19;7.28;;;3.75;;
70985;SDS011;58645;43.068;25.610;2022-09-29T06:53:54;7.32;;;3.63;;
70985;SDS011;58645;43.068;25.610;2022-09-29T06:56:26;5.63;;;3.47;;
70985;SDS011;58645;43.068;25.610;2022-09-29T06:58:51;11.73;;;4.53;;
70985;SDS011;58645;43.068;25.610;2022-09-29T07:01:17;11.45;;;6.35;;
70985;SDS011;58645;43.068;25.610;2022-09-29T07:03:43;12.23;;;6.00;;
70985;SDS011;58645;43.068;25.610;2022-09-29T07:06:09;11.55;;;5.15;;
70985;SDS011;58645;43.068;25.610;2022-09-29T07:08:35;7.65;;;5.70;;
70985;SDS011;58645;43.068;25.610;2022-09-29T07:11:04;8.70;;;5.68;;
70985;SDS011;58645;43.068;25.610;2022-09-29T07:13:34;10.18;;;6.35;;
70985;SDS011;58645;43.068;25.610;2022-09-29T07:16:04;11.15;;;7.15;;
70985;SDS011;58645;43.068;25.610;2022-09-29T07:18:41;11.80;;;6.93;;
70985;SDS011;58645;43.068;25.610;2022-09-29T07:23:45;11.27;;;7.03;;
70985;SDS011;58645;43.068;25.610;2022-09-29T07:26:12;12.88;;;11.40;;
70985;SDS011;58645;43.068;25.610;2022-09-29T07:28:42;16.23;;;14.52;;
70985;SDS011;58645;43.068;25.610;2022-09-29T07:31:18;15.82;;;11.20;;
70985;SDS011;58645;43.068;25.610;2022-09-29T07:33:51;9.98;;;8.00;;
70985;SDS011;58645;43.068;25.610;2022-09-29T07:36:17;3.75;;;2.30;;
70985;SDS011;58645;43.068;25.610;2022-09-29T07:38:48;8.43;;;2.97;;
70985;SDS011;58645;43.068;25.610;2022-09-29T07:41:21;9.05;;;6.88;;
70985;SDS011;58645;43.068;25.610;2022-09-29T07:43:47;7.32;;;4.15;;
70985;SDS011;58645;43.068;25.610;2022-09-29T07:46:13;7.32;;;4.90;;
70985;SDS011;58645;43.068;25.610;2022-09-29T07:48:39;10.85;;;8.02;;
70985;SDS011;58645;43.068;25.610;2022-09-29T07:51:06;14.68;;;10.65;;
70985;SDS011;58645;43.068;25.610;2022-09-29T07:53:37;9.05;;;6.53;;
70985;SDS011;58645;43.068;25.610;2022-09-29T07:58:30;10.35;;;4.13;;
70985;SDS011;58645;43.068;25.610;2022-09-29T08:00:57;6.20;;;3.42;;
70985;SDS011;58645;43.068;25.610;2022-09-29T08:03:23;4.40;;;2.30;;
70985;SDS011;58645;43.068;25.610;2022-09-29T08:05:53;5.53;;;2.20;;
70985;SDS011;58645;43.068;25.610;2022-09-29T08:08:19;3.80;;;2.05;;
70985;SDS011;58645;43.068;25.610;2022-09-29T08:10:45;3.97;;;1.80;;
70985;SDS011;58645;43.068;25.610;2022-09-29T08:13:13;2.38;;;1.15;;
70985;SDS011;58645;43.068;25.610;2022-09-29T08:15:40;3.60;;;1.42;;
70985;SDS011;58645;43.068;25.610;2022-09-29T08:18:06;3.00;;;1.52;;
70985;SDS011;58645;43.068;25.610;2022-09-29T08:20:33;2.22;;;1.17;;
70985;SDS011;58645;43.068;25.610;2022-09-29T08:23:06;3.08;;;1.58;;
70985;SDS011;58645;43.068;25.610;2022-09-29T08:26:01;2.80;;;1.40;;
70985;SDS011;58645;43.068;25.610;2022-09-29T08:28:32;4.13;;;1.50;;
70985;SDS011;58645;43.068;25.610;2022-09-29T08:31:07;2.35;;;1.20;;
70985;SDS011;58645;43.068;25.610;2022-09-29T08:33:47;1.85;;;1.00;;
70985;SDS011;58645;43.068;25.610;2022-09-29T08:36:14;1.75;;;1.10;;
70985;SDS011;58645;43.068;25.610;2022-09-29T08:38:43;1.15;;;0.93;;
70985;SDS011;58645;43.068;25.610;2022-09-29T08:44:08;2.92;;;1.00;;
70985;SDS011;58645;43.068;25.610;2022-09-29T08:46:38;2.67;;;1.10;;
70985;SDS011;58645;43.068;25.610;2022-09-29T08:49:16;4.25;;;1.00;;
70985;SDS011;58645;43.068;25.610;2022-09-29T08:51:52;2.30;;;0.90;;
70985;SDS011;58645;43.068;25.610;2022-09-29T08:54:35;3.00;;;0.80;;
70985;SDS011;58645;43.068;25.610;2022-09-29T08:57:05;1.73;;;0.95;;
70985;SDS011;58645;43.068;25.610;2022-09-29T08:59:39;3.20;;;1.00;;
70985;SDS011;58645;43.068;25.610;2022-09-29T09:02:54;4.85;;;0.95;;
70985;SDS011;58645;43.068;25.610;2022-09-29T09:19:48;4.00;;;0.95;;
70985;SDS011;58645;43.068;25.610;2022-09-29T09:25:23;2.60;;;0.82;;
70985;SDS011;58645;43.068;25.610;2022-09-29T09:36:37;24.08;;;2.60;;
70985;SDS011;58645;43.068;25.610;2022-09-29T09:39:25;2.28;;;1.13;;
70985;SDS011;58645;43.068;25.610;2022-09-29T09:42:16;2.53;;;1.02;;
70985;SDS011;58645;43.068;25.610;2022-09-29T09:44:46;3.13;;;1.40;;
70985;SDS011;58645;43.068;25.610;2022-09-29T09:47:22;3.40;;;1.23;;
70985;SDS011;58645;43.068;25.610;2022-09-29T09:50:03;4.25;;;1.65;;
70985;SDS011;58645;43.068;25.610;2022-09-29T09:55:40;3.53;;;1.40;;
70985;SDS011;58645;43.068;25.610;2022-09-29T10:03:56;4.75;;;1.40;;
70985;SDS011;58645;43.068;25.610;2022-09-29T10:06:26;2.53;;;1.15;;
70985;SDS011;58645;43.068;25.610;2022-09-29T10:08:52;2.85;;;1.20;;
70985;SDS011;58645;43.068;25.610;2022-09-29T10:13:46;2.95;;;1.50;;
70985;SDS011;58645;43.068;25.610;2022-09-29T10:16:16;2.42;;;1.23;;
70985;SDS011;58645;43.068;25.610;2022-09-29T10:18:50;1.73;;;1.02;;
70985;SDS011;58645;43.068;25.610;2022-09-29T10:21:20;4.28;;;1.10;;
70985;SDS011;58645;43.068;25.610;2022-09-29T10:23:54;4.43;;;3.28;;
70985;SDS011;58645;43.068;25.610;2022-09-29T10:26:22;7.03;;;2.80;;
70985;SDS011;58645;43.068;25.610;2022-09-29T10:33:56;1.50;;;0.93;;
70985;SDS011;58645;43.068;25.610;2022-09-29T10:37:17;1.83;;;0.88;;
70985;SDS011;58645;43.068;25.610;2022-09-29T10:42:42;1.73;;;0.90;;
70985;SDS011;58645;43.068;25.610;2022-09-29T10:45:14;1.70;;;1.00;;
70985;SDS011;58645;43.068;25.610;2022-09-29T10:48:32;3.08;;;0.90;;
70985;SDS011;58645;43.068;25.610;2022-09-29T10:51:22;14.77;;;1.63;;
70985;SDS011;58645;43.068;25.610;2022-09-29T10:53:49;3.67;;;0.98;;
70985;SDS011;58645;43.068;25.610;2022-09-29T10:56:15;4.03;;;1.08;;
70985;SDS011;58645;43.068;25.610;2022-09-29T10:58:52;1.98;;;0.95;;
70985;SDS011;58645;43.068;25.610;2022-09-29T11:01:19;3.90;;;0.98;;
70985;SDS011;58645;43.068;25.610;2022-09-29T11:06:29;8.48;;;1.15;;
70985;SDS011;58645;43.068;25.610;2022-09-29T11:09:08;2.38;;;1.02;;
70985;SDS011;58645;43.068;25.610;2022-09-29T11:11:52;4.40;;;1.20;;
70985;SDS011;58645;43.068;25.610;2022-09-29T11:16:57;2.65;;;1.33;;
70985;SDS011;58645;43.068;25.610;2022-09-29T11:19:24;2.85;;;1.23;;
70985;SDS011;58645;43.068;25.610;2022-09-29T11:35:53;2.50;;;1.20;;
70985;SDS011;58645;43.068;25.610;2022-09-29T11:38:45;2.17;;;0.93;;
70985;SDS011;58645;43.068;25.610;2022-09-29T11:57:18;2.45;;;0.60;;
70985;SDS011;58645;43.068;25.610;2022-09-29T12:10:49;3.83;;;1.15;;
70985;SDS011;58645;43.068;25.610;2022-09-29T12:16:13;2.42;;;0.70;;
70985;SDS011;58645;43.068;25.610;2022-09-29T12:21:08;3.45;;;0.98;;
70985;SDS011;58645;43.068;25.610;2022-09-29T12:23:37;2.25;;;0.63;;
70985;SDS011;58645;43.068;25.610;2022-09-29T12:26:06;5.03;;;0.63;;
70985;SDS011;58645;43.068;25.610;2022-09-29T12:31:22;2.25;;;0.50;;
70985;SDS011;58645;43.068;25.610;2022-09-29T12:33:50;3.65;;;0.90;;
70985;SDS011;58645;43.068;25.610;2022-09-29T12:56:21;1.85;;;0.63;;
70985;SDS011;58645;43.068;25.610;2022-09-29T12:58:57;4.25;;;0.90;;
70985;SDS011;58645;43.068;25.610;2022-09-29T13:01:34;2.78;;;0.82;;
70985;SDS011;58645;43.068;25.610;2022-09-29T13:17:30;1.00;;;0.63;;
70985;SDS011;58645;43.068;25.610;2022-09-29T13:28:34;1.95;;;0.85;;
70985;SDS011;58645;43.068;25.610;2022-09-29T13:31:05;1.20;;;0.63;;
70985;SDS011;58645;43.068;25.610;2022-09-29T13:33:35;4.20;;;1.00;;
70985;SDS011;58645;43.068;25.610;2022-09-29T13:36:02;2.03;;;0.63;;
70985;SDS011;58645;43.068;25.610;2022-09-29T13:38:32;1.40;;;0.60;;
70985;SDS011;58645;43.068;25.610;2022-09-29T13:48:52;2.40;;;0.77;;
70985;SDS011;58645;43.068;25.610;2022-09-29T13:51:42;3.15;;;0.80;;
70985;SDS011;58645;43.068;25.610;2022-09-29T13:54:28;2.65;;;0.73;;
70985;SDS011;58645;43.068;25.610;2022-09-29T13:59:30;1.85;;;0.73;;
70985;SDS011;58645;43.068;25.610;2022-09-29T14:01:57;2.65;;;1.00;;
70985;SDS011;58645;43.068;25.610;2022-09-29T14:07:38;3.17;;;0.80;;
70985;SDS011;58645;43.068;25.610;2022-09-29T14:10:18;3.03;;;0.80;;
70985;SDS011;58645;43.068;25.610;2022-09-29T14:12:58;1.85;;;0.70;;
70985;SDS011;58645;43.068;25.610;2022-09-29T14:15:42;2.33;;;0.70;;
70985;SDS011;58645;43.068;25.610;2022-09-29T14:21:04;1.52;;;0.80;;
70985;SDS011;58645;43.068;25.610;2022-09-29T14:23:45;1.73;;;0.73;;
70985;SDS011;58645;43.068;25.610;2022-09-29T14:29:13;2.53;;;1.10;;
70985;SDS011;58645;43.068;25.610;2022-09-29T14:32:01;2.25;;;0.70;;
70985;SDS011;58645;43.068;25.610;2022-09-29T14:34:30;6.95;;;1.40;;
70985;SDS011;58645;43.068;25.610;2022-09-29T14:36:58;2.92;;;0.75;;
70985;SDS011;58645;43.068;25.610;2022-09-29T14:39:25;1.48;;;0.85;;
70985;SDS011;58645;43.068;25.610;2022-09-29T14:41:52;2.72;;;1.02;;
70985;SDS011;58645;43.068;25.610;2022-09-29T14:46:59;2.15;;;1.00;;
70985;SDS011;58645;43.068;25.610;2022-09-29T14:58:14;10.23;;;6.13;;
70985;SDS011;58645;43.068;25.610;2022-09-29T15:00:45;6.15;;;2.58;;
70985;SDS011;58645;43.068;25.610;2022-09-29T15:03:31;4.82;;;1.38;;
70985;SDS011;58645;43.068;25.610;2022-09-29T15:06:14;1.92;;;0.73;;
70985;SDS011;58645;43.068;25.610;2022-09-29T15:09:02;3.40;;;0.70;;
70985;SDS011;58645;43.068;25.610;2022-09-29T15:11:42;2.05;;;0.85;;
70985;SDS011;58645;43.068;25.610;2022-09-29T15:19:33;1.45;;;0.73;;
70985;SDS011;58645;43.068;25.610;2022-09-29T15:27:44;2.45;;;1.23;;
70985;SDS011;58645;43.068;25.610;2022-09-29T15:30:15;7.72;;;1.42;;
70985;SDS011;58645;43.068;25.610;2022-09-29T15:32:45;3.30;;;1.08;;
70985;SDS011;58645;43.068;25.610;2022-09-29T15:35:14;5.07;;;1.23;;
70985;SDS011;58645;43.068;25.610;2022-09-29T15:40:18;4.97;;;1.10;;
70985;SDS011;58645;43.068;25.610;2022-09-29T15:42:46;4.90;;;1.15;;
70985;SDS011;58645;43.068;25.610;2022-09-29T15:45:17;3.78;;;1.13;;
70985;SDS011;58645;43.068;25.610;2022-09-29T15:47:46;3.88;;;1.00;;
70985;SDS011;58645;43.068;25.610;2022-09-29T15:50:17;6.03;;;1.30;;
70985;SDS011;58645;43.068;25.610;2022-09-29T15:52:45;4.63;;;2.10;;
70985;SDS011;58645;43.068;25.610;2022-09-29T15:55:13;6.32;;;1.67;;
70985;SDS011;58645;43.068;25.610;2022-09-29T15:57:42;6.53;;;1.55;;
70985;SDS011;58645;43.068;25.610;2022-09-29T16:02:47;6.97;;;1.55;;
70985;SDS011;58645;43.068;25.610;2022-09-29T16:05:16;4.50;;;1.45;;
70985;SDS011;58645;43.068;25.610;2022-09-29T16:07:48;5.57;;;1.42;;
70985;SDS011;58645;43.068;25.610;2022-09-29T16:10:22;6.00;;;1.58;;
70985;SDS011;58645;43.068;25.610;2022-09-29T16:18:01;5.10;;;1.60;;
70985;SDS011;58645;43.068;25.610;2022-09-29T16:20:32;4.05;;;1.90;;
70985;SDS011;58645;43.068;25.610;2022-09-29T16:23:06;6.57;;;2.05;;
70985;SDS011;58645;43.068;25.610;2022-09-29T16:25:33;8.20;;;2.10;;
70985;SDS011;58645;43.068;25.610;2022-09-29T16:30:32;7.75;;;2.60;;
70985;SDS011;58645;43.068;25.610;2022-09-29T16:33:13;5.00;;;2.58;;
70985;SDS011;58645;43.068;25.610;2022-09-29T16:36:01;7.20;;;3.47;;
70985;SDS011;58645;43.068;25.610;2022-09-29T16:38:45;8.25;;;3.35;;
70985;SDS011;58645;43.068;25.610;2022-09-29T16:41:18;8.05;;;3.40;;
70985;SDS011;58645;43.068;25.610;2022-09-29T16:43:44;8.65;;;3.55;;
70985;SDS011;58645;43.068;25.610;2022-09-29T16:46:20;9.40;;;3.83;;
70985;SDS011;58645;43.068;25.610;2022-09-29T16:48:47;9.60;;;3.40;;
70985;SDS011;58645;43.068;25.610;2022-09-29T16:51:15;10.57;;;3.08;;
70985;SDS011;58645;43.068;25.610;2022-09-29T16:53:43;10.57;;;4.10;;
70985;SDS011;58645;43.068;25.610;2022-09-29T16:56:27;11.55;;;3.83;;
70985;SDS011;58645;43.068;25.610;2022-09-29T16:59:11;7.43;;;3.97;;
70985;SDS011;58645;43.068;25.610;2022-09-29T17:01:39;9.07;;;3.15;;
70985;SDS011;58645;43.068;25.610;2022-09-29T17:04:06;7.50;;;2.85;;
70985;SDS011;58645;43.068;25.610;2022-09-29T17:06:32;8.82;;;2.53;;
70985;SDS011;58645;43.068;25.610;2022-09-29T17:08:58;5.80;;;2.88;;
70985;SDS011;58645;43.068;25.610;2022-09-29T17:11:25;6.70;;;2.95;;
70985;SDS011;58645;43.068;25.610;2022-09-29T17:13:53;6.90;;;2.78;;
70985;SDS011;58645;43.068;25.610;2022-09-29T17:16:21;6.22;;;3.05;;
70985;SDS011;58645;43.068;25.610;2022-09-29T17:18:49;5.47;;;2.95;;
70985;SDS011;58645;43.068;25.610;2022-09-29T17:21:16;6.13;;;2.80;;
70985;SDS011;58645;43.068;25.610;2022-09-29T17:23:43;6.07;;;3.35;;
70985;SDS011;58645;43.068;25.610;2022-09-29T17:29:32;5.18;;;3.03;;
70985;SDS011;58645;43.068;25.610;2022-09-29T17:32:00;5.47;;;3.13;;
70985;SDS011;58645;43.068;25.610;2022-09-29T17:34:26;10.15;;;3.25;;
70985;SDS011;58645;43.068;25.610;2022-09-29T17:36:56;8.98;;;3.20;;
70985;SDS011;58645;43.068;25.610;2022-09-29T17:39:24;6.28;;;2.83;;
70985;SDS011;58645;43.068;25.610;2022-09-29T17:41:50;6.10;;;3.42;;
70985;SDS011;58645;43.068;25.610;2022-09-29T17:44:16;7.78;;;3.28;;
70985;SDS011;58645;43.068;25.610;2022-09-29T17:46:43;7.38;;;2.95;;
70985;SDS011;58645;43.068;25.610;2022-09-29T17:49:13;8.55;;;3.47;;
70985;SDS011;58645;43.068;25.610;2022-09-29T17:51:41;7.53;;;3.55;;
70985;SDS011;58645;43.068;25.610;2022-09-29T17:54:07;8.65;;;3.67;;
70985;SDS011;58645;43.068;25.610;2022-09-29T17:56:36;7.75;;;3.45;;
70985;SDS011;58645;43.068;25.610;2022-09-29T17:59:05;8.15;;;3.70;;
70985;SDS011;58645;43.068;25.610;2022-09-29T18:01:32;11.35;;;3.90;;
70985;SDS011;58645;43.068;25.610;2022-09-29T18:04:02;7.88;;;3.40;;
70985;SDS011;58645;43.068;25.610;2022-09-29T18:06:28;8.30;;;3.35;;
70985;SDS011;58645;43.068;25.610;2022-09-29T18:08:56;10.73;;;3.20;;
70985;SDS011;58645;43.068;25.610;2022-09-29T18:11:23;12.82;;;3.65;;
70985;SDS011;58645;43.068;25.610;2022-09-29T18:13:50;7.32;;;3.25;;
70985;SDS011;58645;43.068;25.610;2022-09-29T18:16:17;7.50;;;3.08;;
70985;SDS011;58645;43.068;25.610;2022-09-29T18:18:45;7.15;;;3.53;;
70985;SDS011;58645;43.068;25.610;2022-09-29T18:21:11;8.57;;;3.50;;
70985;SDS011;58645;43.068;25.610;2022-09-29T18:26:03;7.78;;;3.30;;
70985;SDS011;58645;43.068;25.610;2022-09-29T18:28:30;8.20;;;3.45;;
70985;SDS011;58645;43.068;25.610;2022-09-29T18:31:14;7.95;;;3.33;;
70985;SDS011;58645;43.068;25.610;2022-09-29T18:33:48;6.10;;;3.05;;
70985;SDS011;58645;43.068;25.610;2022-09-29T18:36:13;8.00;;;3.33;;
70985;SDS011;58645;43.068;25.610;2022-09-29T18:38:39;5.45;;;2.83;;
70985;SDS011;58645;43.068;25.610;2022-09-29T18:41:05;6.95;;;3.25;;
70985;SDS011;58645;43.068;25.610;2022-09-29T18:43:40;5.18;;;2.65;;
70985;SDS011;58645;43.068;25.610;2022-09-29T18:46:05;5.15;;;2.55;;
70985;SDS011;58645;43.068;25.610;2022-09-29T18:48:31;5.13;;;2.88;;
70985;SDS011;58645;43.068;25.610;2022-09-29T18:50:57;7.03;;;2.65;;
70985;SDS011;58645;43.068;25.610;2022-09-29T18:53:23;5.05;;;3.00;;
70985;SDS011;58645;43.068;25.610;2022-09-29T18:55:49;7.88;;;2.58;;
70985;SDS011;58645;43.068;25.610;2022-09-29T18:58:20;7.47;;;2.75;;
70985;SDS011;58645;43.068;25.610;2022-09-29T19:00:48;4.57;;;2.72;;
70985;SDS011;58645;43.068;25.610;2022-09-29T19:03:18;6.10;;;2.90;;
70985;SDS011;58645;43.068;25.610;2022-09-29T19:05:44;5.07;;;3.08;;
70985;SDS011;58645;43.068;25.610;2022-09-29T19:08:12;7.38;;;2.72;;
70985;SDS011;58645;43.068;25.610;2022-09-29T19:10:39;9.50;;;3.03;;
70985;SDS011;58645;43.068;25.610;2022-09-29T19:13:11;6.53;;;2.72;;
70985;SDS011;58645;43.068;25.610;2022-09-29T19:15:38;6.18;;;3.22;;
70985;SDS011;58645;43.068;25.610;2022-09-29T19:18:05;5.90;;;3.33;;